sensor_id;sensor_type;location;lat;lon;timestamp;P1;durP1;ratioP1;P2;durP2;ratioP2
54917;SDS011;40818;50.562;7.454;2023-04-30T01:20:11;34.22;;;18.35;;
54917;SDS011;40818;50.562;7.454;2023-04-30T01:30:18;38.40;;;18.42;;
54917;SDS011;40818;50.562;7.454;2023-04-30T01:40:23;40.47;;;19.88;;
54917;SDS011;40818;50.562;7.454;2023-04-30T01:50:45;36.78;;;18.63;;
54917;SDS011;40818;50.562;7.454;2023-04-30T02:00:51;37.17;;;17.88;;
54917;SDS011;40818;50.562;7.454;2023-04-30T02:10:57;26.63;;;14.82;;
54917;SDS011;40818;50.562;7.454;2023-04-30T02:21:00;37.22;;;15.70;;
54917;SDS011;40818;50.562;7.454;2023-04-30T02:31:06;33.90;;;15.55;;
54917;SDS011;40818;50.562;7.454;2023-04-30T02:41:10;38.67;;;15.73;;
54917;SDS011;40818;50.562;7.454;2023-04-30T02:51:17;37.33;;;18.52;;
54917;SDS011;40818;50.562;7.454;2023-04-30T03:01:21;43.55;;;19.23;;
54917;SDS011;40818;50.562;7.454;2023-04-30T03:11:27;44.58;;;20.13;;
54917;SDS011;40818;50.562;7.454;2023-04-30T03:21:30;38.90;;;19.80;;
54917;SDS011;40818;50.562;7.454;2023-04-30T03:31:36;41.20;;;17.70;;
54917;SDS011;40818;50.562;7.454;2023-04-30T03:41:39;49.30;;;19.25;;
54917;SDS011;40818;50.562;7.454;2023-04-30T03:51:45;42.05;;;20.70;;
54917;SDS011;40818;50.562;7.454;2023-04-30T04:01:49;48.00;;;19.83;;
54917;SDS011;40818;50.562;7.454;2023-04-30T04:11:55;40.25;;;17.15;;
54917;SDS011;40818;50.562;7.454;2023-04-30T04:21:59;32.53;;;15.02;;
54917;SDS011;40818;50.562;7.454;2023-04-30T04:32:05;32.83;;;14.27;;
54917;SDS011;40818;50.562;7.454;2023-04-30T04:42:09;24.42;;;12.93;;
54917;SDS011;40818;50.562;7.454;2023-04-30T04:52:15;31.42;;;14.90;;
54917;SDS011;40818;50.562;7.454;2023-04-30T05:02:19;37.78;;;16.83;;
54917;SDS011;40818;50.562;7.454;2023-04-30T05:12:25;27.98;;;12.57;;
54917;SDS011;40818;50.562;7.454;2023-04-30T05:22:28;20.05;;;9.25;;
54917;SDS011;40818;50.562;7.454;2023-04-30T05:32:35;18.90;;;8.60;;
54917;SDS011;40818;50.562;7.454;2023-04-30T05:42:38;11.70;;;5.82;;
54917;SDS011;40818;50.562;7.454;2023-04-30T05:52:45;7.80;;;4.32;;
54917;SDS011;40818;50.562;7.454;2023-04-30T06:02:48;7.35;;;2.72;;
54917;SDS011;40818;50.562;7.454;2023-04-30T06:12:54;11.77;;;2.85;;
54917;SDS011;40818;50.562;7.454;2023-04-30T06:22:58;10.95;;;3.10;;
54917;SDS011;40818;50.562;7.454;2023-04-30T06:33:05;10.10;;;2.85;;
54917;SDS011;40818;50.562;7.454;2023-04-30T06:43:08;6.18;;;2.97;;
54917;SDS011;40818;50.562;7.454;2023-04-30T06:53:14;5.85;;;1.88;;
54917;SDS011;40818;50.562;7.454;2023-04-30T07:03:18;7.03;;;1.77;;
54917;SDS011;40818;50.562;7.454;2023-04-30T07:13:24;4.93;;;1.48;;
54917;SDS011;40818;50.562;7.454;2023-04-30T07:23:27;6.00;;;1.40;;
54917;SDS011;40818;50.562;7.454;2023-04-30T07:33:33;7.18;;;1.08;;
54917;SDS011;40818;50.562;7.454;2023-04-30T07:43:36;2.20;;;0.75;;
54917;SDS011;40818;50.562;7.454;2023-04-30T07:53:42;3.35;;;0.70;;
54917;SDS011;40818;50.562;7.454;2023-04-30T08:03:46;1.25;;;0.40;;
54917;SDS011;40818;50.562;7.454;2023-04-30T08:13:52;0.80;;;0.30;;
54917;SDS011;40818;50.562;7.454;2023-04-30T08:23:56;1.02;;;0.30;;
54917;SDS011;40818;50.562;7.454;2023-04-30T08:34:02;1.77;;;0.57;;
54917;SDS011;40818;50.562;7.454;2023-04-30T08:44:07;1.40;;;0.50;;
54917;SDS011;40818;50.562;7.454;2023-04-30T08:54:15;1.33;;;0.45;;
54917;SDS011;40818;50.562;7.454;2023-04-30T09:04:20;1.60;;;0.47;;
54917;SDS011;40818;50.562;7.454;2023-04-30T09:14:26;0.98;;;0.30;;
54917;SDS011;40818;50.562;7.454;2023-04-30T09:24:30;1.10;;;0.40;;
54917;SDS011;40818;50.562;7.454;2023-04-30T09:34:51;0.80;;;0.20;;
54917;SDS011;40818;50.562;7.454;2023-04-30T09:44:54;1.77;;;0.20;;
54917;SDS011;40818;50.562;7.454;2023-04-30T09:55:00;0.70;;;0.10;;
54917;SDS011;40818;50.562;7.454;2023-04-30T10:05:04;1.92;;;0.10;;
54917;SDS011;40818;50.562;7.454;2023-04-30T10:15:12;1.30;;;0.10;;
54917;SDS011;40818;50.562;7.454;2023-04-30T10:25:18;0.70;;;0.10;;
54917;SDS011;40818;50.562;7.454;2023-04-30T10:35:25;0.88;;;0.00;;
54917;SDS011;40818;50.562;7.454;2023-04-30T10:45:33;0.10;;;0.00;;
54917;SDS011;40818;50.562;7.454;2023-04-30T10:55:46;0.17;;;0.00;;
54917;SDS011;40818;50.562;7.454;2023-04-30T11:05:51;0.28;;;0.00;;
54917;SDS011;40818;50.562;7.454;2023-04-30T11:15:57;0.85;;;0.00;;
54917;SDS011;40818;50.562;7.454;2023-04-30T11:26:04;0.33;;;0.00;;
54917;SDS011;40818;50.562;7.454;2023-04-30T11:36:12;28.48;;;0.70;;
54917;SDS011;40818;50.562;7.454;2023-04-30T11:46:18;1.80;;;0.00;;
54917;SDS011;40818;50.562;7.454;2023-04-30T11:56:24;0.43;;;0.00;;
54917;SDS011;40818;50.562;7.454;2023-04-30T12:06:27;0.55;;;0.00;;
54917;SDS011;40818;50.562;7.454;2023-04-30T12:16:40;0.40;;;0.00;;
54917;SDS011;40818;50.562;7.454;2023-04-30T12:26:48;0.20;;;0.00;;
54917;SDS011;40818;50.562;7.454;2023-04-30T12:36:58;0.10;;;0.00;;
54917;SDS011;40818;50.562;7.454;2023-04-30T12:47:05;0.25;;;0.00;;
54917;SDS011;40818;50.562;7.454;2023-04-30T12:57:12;2.70;;;0.00;;
54917;SDS011;40818;50.562;7.454;2023-04-30T13:07:15;0.22;;;0.00;;
54917;SDS011;40818;50.562;7.454;2023-04-30T13:17:22;0.20;;;0.00;;
54917;SDS011;40818;50.562;7.454;2023-04-30T13:27:25;0.30;;;0.10;;
54917;SDS011;40818;50.562;7.454;2023-04-30T13:37:31;0.30;;;0.00;;
54917;SDS011;40818;50.562;7.454;2023-04-30T13:47:38;0.20;;;0.00;;
54917;SDS011;40818;50.562;7.454;2023-04-30T13:57:44;0.20;;;0.10;;
54917;SDS011;40818;50.562;7.454;2023-04-30T14:07:47;0.15;;;0.00;;
54917;SDS011;40818;50.562;7.454;2023-04-30T14:17:53;0.10;;;0.00;;
54917;SDS011;40818;50.562;7.454;2023-04-30T14:27:56;0.00;;;0.00;;
54917;SDS011;40818;50.562;7.454;2023-04-30T14:38:03;0.10;;;0.10;;
54917;SDS011;40818;50.562;7.454;2023-04-30T14:48:06;0.10;;;0.00;;
54917;SDS011;40818;50.562;7.454;2023-04-30T14:58:12;0.38;;;0.10;;
54917;SDS011;40818;50.562;7.454;2023-04-30T15:08:15;0.25;;;0.00;;
54917;SDS011;40818;50.562;7.454;2023-04-30T15:18:21;0.10;;;0.00;;
54917;SDS011;40818;50.562;7.454;2023-04-30T15:28:24;0.28;;;0.10;;
54917;SDS011;40818;50.562;7.454;2023-04-30T15:38:30;0.20;;;0.00;;
54917;SDS011;40818;50.562;7.454;2023-04-30T15:48:34;1.52;;;0.00;;
54917;SDS011;40818;50.562;7.454;2023-04-30T15:58:40;0.20;;;0.00;;
54917;SDS011;40818;50.562;7.454;2023-04-30T16:08:43;0.10;;;0.00;;
54917;SDS011;40818;50.562;7.454;2023-04-30T16:18:51;0.63;;;0.10;;
54917;SDS011;40818;50.562;7.454;2023-04-30T16:28:55;0.40;;;0.00;;
54917;SDS011;40818;50.562;7.454;2023-04-30T16:39:01;0.32;;;0.00;;
54917;SDS011;40818;50.562;7.454;2023-04-30T16:49:04;0.40;;;0.00;;
54917;SDS011;40818;50.562;7.454;2023-04-30T16:59:10;0.43;;;0.03;;
54917;SDS011;40818;50.562;7.454;2023-04-30T17:09:14;1.75;;;0.00;;
54917;SDS011;40818;50.562;7.454;2023-04-30T17:19:21;1.25;;;0.00;;
54917;SDS011;40818;50.562;7.454;2023-04-30T17:29:25;0.15;;;0.00;;
54917;SDS011;40818;50.562;7.454;2023-04-30T17:39:31;0.22;;;0.00;;
54917;SDS011;40818;50.562;7.454;2023-04-30T17:49:34;0.35;;;0.08;;
54917;SDS011;40818;50.562;7.454;2023-04-30T17:59:40;0.32;;;0.00;;
54917;SDS011;40818;50.562;7.454;2023-04-30T18:09:44;0.30;;;0.00;;
54917;SDS011;40818;50.562;7.454;2023-04-30T18:19:49;0.20;;;0.00;;
54917;SDS011;40818;50.562;7.454;2023-04-30T18:29:54;0.45;;;0.00;;
54917;SDS011;40818;50.562;7.454;2023-04-30T18:40:00;1.13;;;0.00;;
54917;SDS011;40818;50.562;7.454;2023-04-30T18:50:04;0.45;;;0.00;;
54917;SDS011;40818;50.562;7.454;2023-04-30T19:00:15;4.70;;;0.10;;
54917;SDS011;40818;50.562;7.454;2023-04-30T19:10:19;0.25;;;0.00;;
54917;SDS011;40818;50.562;7.454;2023-04-30T19:20:25;0.43;;;0.10;;
54917;SDS011;40818;50.562;7.454;2023-04-30T19:30:28;0.85;;;0.20;;
54917;SDS011;40818;50.562;7.454;2023-04-30T19:40:36;1.35;;;0.25;;
54917;SDS011;40818;50.562;7.454;2023-04-30T19:50:39;1.73;;;0.15;;
54917;SDS011;40818;50.562;7.454;2023-04-30T20:00:47;1.05;;;0.13;;
54917;SDS011;40818;50.562;7.454;2023-04-30T20:10:50;1.85;;;0.28;;
54917;SDS011;40818;50.562;7.454;2023-04-30T20:20:57;0.98;;;0.20;;
54917;SDS011;40818;50.562;7.454;2023-04-30T20:31:01;1.17;;;0.10;;
54917;SDS011;40818;50.562;7.454;2023-04-30T20:41:08;0.75;;;0.10;;
54917;SDS011;40818;50.562;7.454;2023-04-30T20:51:11;0.77;;;0.10;;
54917;SDS011;40818;50.562;7.454;2023-04-30T21:01:18;1.30;;;0.10;;
54917;SDS011;40818;50.562;7.454;2023-04-30T21:11:21;1.95;;;0.20;;
54917;SDS011;40818;50.562;7.454;2023-04-30T21:21:27;2.05;;;0.10;;
54917;SDS011;40818;50.562;7.454;2023-04-30T21:31:31;0.98;;;0.10;;
54917;SDS011;40818;50.562;7.454;2023-04-30T21:41:37;2.45;;;0.10;;
54917;SDS011;40818;50.562;7.454;2023-04-30T21:51:40;2.55;;;0.20;;
54917;SDS011;40818;50.562;7.454;2023-04-30T22:01:46;1.55;;;0.30;;
54917;SDS011;40818;50.562;7.454;2023-04-30T22:11:50;1.08;;;0.20;;
54917;SDS011;40818;50.562;7.454;2023-04-30T22:21:56;0.85;;;0.20;;
54917;SDS011;40818;50.562;7.454;2023-04-30T22:31:59;1.65;;;0.20;;
54917;SDS011;40818;50.562;7.454;2023-04-30T22:42:06;1.08;;;0.20;;
54917;SDS011;40818;50.562;7.454;2023-04-30T22:52:11;1.20;;;0.20;;
54917;SDS011;40818;50.562;7.454;2023-04-30T23:02:17;0.68;;;0.20;;
54917;SDS011;40818;50.562;7.454;2023-04-30T23:12:21;3.67;;;0.30;;
54917;SDS011;40818;50.562;7.454;2023-04-30T23:22:27;1.80;;;0.30;;
54917;SDS011;40818;50.562;7.454;2023-04-30T23:32:31;1.17;;;0.20;;
54917;SDS011;40818;50.562;7.454;2023-04-30T23:42:37;1.77;;;0.20;;
54917;SDS011;40818;50.562;7.454;2023-04-30T23:52:40;0.95;;;0.20;;
